createdAt,value
2017-12-19T00:01:26.386Z,56.40
2017-12-19T00:03:53.923Z,56.40
2017-12-19T00:06:21.430Z,56.90
2017-12-19T00:08:48.942Z,56.30
2017-12-19T00:11:16.547Z,56.40
2017-12-19T00:13:44.100Z,56.40
2017-12-19T00:16:11.615Z,56.40
2017-12-19T00:18:39.107Z,56.50
2017-12-19T00:21:06.618Z,56.50
2017-12-19T00:23:34.899Z,56.50
2017-12-19T00:26:03.184Z,56.50
2017-12-19T00:28:30.689Z,56.50
2017-12-19T00:30:58.198Z,56.50
2017-12-19T00:33:25.706Z,56.50
2017-12-19T00:35:53.218Z,56.40
2017-12-19T00:38:20.711Z,56.40
2017-12-19T00:40:48.234Z,56.30
2017-12-19T00:43:15.734Z,56.40
2017-12-19T00:45:43.250Z,56.40
2017-12-19T00:48:10.762Z,56.40
2017-12-19T00:50:38.270Z,56.40
2017-12-19T00:53:05.772Z,56.50
2017-12-19T00:55:33.304Z,56.50
2017-12-19T00:58:00.798Z,56.50
2017-12-19T01:00:28.339Z,56.50
2017-12-19T01:02:55.849Z,56.50
2017-12-19T01:05:24.135Z,56.70
2017-12-19T01:07:52.486Z,56.70
2017-12-19T01:10:19.986Z,56.70
2017-12-19T01:12:47.527Z,56.80
2017-12-19T01:15:15.794Z,56.90
2017-12-19T01:17:43.306Z,56.80
2017-12-19T01:20:10.806Z,56.80
2017-12-19T01:22:38.325Z,57.30
2017-12-19T01:25:06.628Z,56.70
2017-12-19T01:27:34.146Z,56.70
2017-12-19T01:30:01.647Z,56.70
2017-12-19T01:32:29.163Z,56.70
2017-12-19T01:34:57.449Z,56.60
2017-12-19T01:37:24.974Z,56.70
2017-12-19T01:39:53.246Z,56.70
2017-12-19T01:42:21.530Z,56.80
2017-12-19T01:44:49.803Z,56.90
2017-12-19T01:47:18.091Z,56.90
2017-12-19T01:49:45.592Z,56.80
2017-12-19T01:52:13.111Z,56.90
2017-12-19T01:54:40.606Z,56.90
2017-12-19T01:57:08.143Z,57.10
2017-12-19T01:59:35.643Z,57.00
2017-12-19T02:02:03.179Z,57.00
2017-12-19T02:04:30.673Z,57.00
2017-12-19T02:06:58.168Z,57.00
2017-12-19T02:09:25.682Z,57.10
2017-12-19T02:11:53.183Z,57.10
2017-12-19T02:14:20.700Z,57.10
2017-12-19T02:16:48.198Z,57.10
2017-12-19T02:19:15.720Z,57.00
2017-12-19T02:21:43.218Z,57.10
2017-12-19T02:24:10.739Z,57.10
2017-12-19T02:26:38.243Z,57.10
2017-12-19T02:29:05.758Z,57.00
2017-12-19T02:31:33.261Z,57.00
2017-12-19T02:34:00.787Z,56.80
2017-12-19T02:36:28.279Z,56.80
2017-12-19T02:38:55.796Z,57.00
2017-12-19T02:41:23.294Z,56.70
2017-12-19T02:43:50.816Z,56.70
2017-12-19T02:46:18.310Z,56.70
2017-12-19T02:48:45.823Z,56.70
2017-12-19T02:51:13.345Z,56.70
2017-12-19T02:53:40.905Z,56.80
2017-12-19T02:56:08.402Z,56.90
2017-12-19T02:58:35.906Z,56.90
2017-12-19T03:01:03.427Z,56.90
2017-12-19T03:03:30.936Z,56.90
2017-12-19T03:05:58.471Z,56.90
2017-12-19T03:08:26.746Z,57.00
2017-12-19T03:10:55.022Z,57.00
2017-12-19T03:13:23.306Z,57.10
2017-12-19T03:15:51.576Z,57.00
2017-12-19T03:18:19.841Z,57.00
2017-12-19T03:20:48.130Z,56.90
2017-12-19T03:23:16.391Z,56.70
2017-12-19T03:25:43.902Z,56.60
2017-12-19T03:28:12.170Z,56.30
2017-12-19T03:30:39.692Z,56.30
2017-12-19T03:33:07.953Z,56.30
2017-12-19T03:35:35.471Z,56.30
2017-12-19T03:38:02.967Z,56.40
2017-12-19T03:40:30.493Z,56.60
2017-12-19T03:42:57.995Z,56.70
2017-12-19T03:45:25.510Z,56.80
2017-12-19T03:47:53.007Z,56.90
2017-12-19T03:50:20.522Z,56.90
2017-12-19T03:52:48.023Z,57.00
2017-12-19T03:55:15.523Z,57.10
2017-12-19T03:57:43.033Z,57.70
2017-12-19T04:00:10.551Z,57.20
2017-12-19T04:02:38.108Z,57.30
2017-12-19T04:05:05.611Z,57.30
2017-12-19T04:07:33.139Z,57.20
2017-12-19T04:10:00.668Z,57.20
2017-12-19T04:12:28.950Z,57.50
2017-12-19T04:14:56.474Z,57.20
2017-12-19T04:17:23.995Z,57.30
2017-12-19T04:19:51.521Z,57.30
2017-12-19T04:22:19.801Z,57.30
2017-12-19T04:24:47.305Z,57.30
2017-12-19T04:27:14.826Z,57.30
2017-12-19T04:29:42.331Z,57.20
2017-12-19T04:32:09.845Z,57.20
2017-12-19T04:34:37.343Z,57.20
2017-12-19T04:37:04.858Z,57.20
2017-12-19T04:39:32.374Z,57.20
2017-12-19T04:41:59.902Z,57.20
2017-12-19T04:44:27.407Z,57.30
2017-12-19T04:46:54.946Z,57.30
2017-12-19T04:49:22.438Z,57.40
2017-12-19T04:51:50.702Z,57.50
2017-12-19T04:54:18.226Z,57.40
2017-12-19T04:56:45.718Z,57.40
2017-12-19T04:59:13.231Z,57.40
2017-12-19T05:01:41.550Z,57.40
2017-12-19T05:04:09.065Z,57.30
2017-12-19T05:06:36.558Z,57.30
2017-12-19T05:09:04.087Z,57.30
2017-12-19T05:11:31.591Z,57.40
2017-12-19T05:13:59.111Z,57.40
2017-12-19T05:16:26.618Z,57.40
2017-12-19T05:18:54.897Z,57.40
2017-12-19T05:21:23.158Z,57.50
2017-12-19T05:23:50.664Z,57.40
2017-12-19T05:26:18.162Z,57.40
2017-12-19T05:28:45.669Z,57.50
2017-12-19T05:31:13.184Z,57.40
2017-12-19T05:33:44.042Z,57.40
2017-12-19T05:36:12.303Z,57.40
2017-12-19T05:38:39.817Z,57.40
2017-12-19T05:41:07.310Z,57.40
2017-12-19T05:43:34.873Z,57.30
2017-12-19T05:46:02.367Z,57.30
2017-12-19T05:48:30.639Z,57.20
2017-12-19T05:50:58.939Z,57.20
2017-12-19T05:53:26.455Z,57.20
2017-12-19T05:55:53.954Z,57.20
2017-12-19T05:58:21.474Z,57.30
2017-12-19T06:00:48.986Z,57.30
2017-12-19T06:03:16.551Z,57.30
2017-12-19T06:05:44.051Z,57.30
2017-12-19T06:08:11.555Z,56.90
2017-12-19T06:10:39.066Z,57.80
2017-12-19T06:13:06.558Z,57.20
2017-12-19T06:15:34.066Z,57.20
2017-12-19T06:18:01.573Z,57.20
2017-12-19T06:20:29.850Z,57.30
2017-12-19T06:22:57.356Z,57.20
2017-12-19T06:25:24.870Z,57.30
2017-12-19T06:27:52.368Z,57.30
2017-12-19T06:30:19.885Z,57.40
2017-12-19T06:32:47.387Z,57.40
2017-12-19T06:35:14.955Z,57.40
2017-12-19T06:37:42.446Z,57.30
2017-12-19T06:40:10.714Z,57.20
2017-12-19T06:42:38.236Z,57.10
2017-12-19T06:45:06.497Z,57.00
2017-12-19T06:47:34.024Z,56.90
2017-12-19T06:50:02.296Z,56.90
2017-12-19T06:52:29.816Z,56.80
2017-12-19T06:54:57.318Z,56.70
2017-12-19T06:57:25.602Z,56.70
2017-12-19T06:59:53.862Z,56.70
2017-12-19T07:02:22.155Z,56.70
2017-12-19T07:04:49.650Z,56.70
2017-12-19T07:07:17.166Z,56.70
2017-12-19T07:09:45.434Z,56.70
2017-12-19T07:12:13.716Z,56.90
2017-12-19T07:14:41.975Z,56.80
2017-12-19T07:17:09.484Z,56.70
2017-12-19T07:19:37.005Z,56.70
2017-12-19T07:22:04.501Z,56.60
2017-12-19T07:24:32.022Z,56.60
2017-12-19T07:27:00.285Z,57.30
2017-12-19T07:29:27.808Z,56.60
2017-12-19T07:31:55.303Z,56.60
2017-12-19T07:34:22.818Z,56.60
2017-12-19T07:36:50.315Z,56.50
2017-12-19T07:39:17.844Z,56.50
2017-12-19T07:41:45.353Z,56.50
2017-12-19T07:44:13.647Z,57.10
2017-12-19T07:46:41.910Z,56.50
2017-12-19T07:49:10.202Z,56.40
2017-12-19T07:51:38.467Z,56.40
2017-12-19T07:54:06.789Z,56.30
2017-12-19T07:56:34.282Z,56.20
2017-12-19T07:59:03.286Z,56.20
2017-12-19T08:01:31.578Z,56.20
2017-12-19T08:03:59.841Z,56.30
2017-12-19T08:06:28.121Z,56.40
2017-12-19T08:08:56.385Z,56.50
2017-12-19T08:11:23.905Z,56.40
2017-12-19T08:13:51.419Z,57.00
2017-12-19T08:16:19.698Z,56.50
2017-12-19T08:18:47.959Z,56.40
2017-12-19T08:21:15.502Z,56.40
2017-12-19T08:23:43.008Z,56.40
2017-12-19T08:26:10.510Z,56.40
2017-12-19T08:28:38.031Z,56.40
2017-12-19T08:31:05.538Z,56.50
2017-12-19T08:33:33.050Z,56.40
2017-12-19T08:36:00.553Z,56.50
2017-12-19T08:38:28.074Z,56.50
2017-12-19T08:40:55.571Z,56.50
2017-12-19T08:43:23.089Z,56.50
2017-12-19T08:45:51.357Z,56.50
2017-12-19T08:48:18.879Z,56.40
2017-12-19T08:50:46.382Z,56.30
2017-12-19T08:53:13.925Z,56.30
2017-12-19T08:55:42.195Z,56.40
2017-12-19T08:58:10.481Z,56.50
2017-12-19T09:00:38.747Z,56.60
2017-12-19T09:03:07.037Z,56.70
2017-12-19T09:05:34.543Z,56.70
2017-12-19T09:08:02.058Z,56.80
2017-12-19T09:10:29.565Z,56.90
2017-12-19T09:12:57.078Z,56.90
2017-12-19T09:15:24.574Z,57.00
2017-12-19T09:17:52.126Z,57.00
2017-12-19T09:20:19.626Z,57.00
2017-12-19T09:22:47.145Z,57.00
2017-12-19T09:25:14.651Z,57.00
2017-12-19T09:27:42.938Z,57.00
2017-12-19T09:30:11.204Z,57.00
2017-12-19T09:32:39.539Z,57.00
2017-12-19T09:35:07.037Z,56.90
2017-12-19T09:37:34.545Z,56.90
2017-12-19T09:40:02.068Z,56.90
2017-12-19T09:42:30.338Z,56.80
2017-12-19T09:44:58.623Z,56.80
2017-12-19T09:47:26.891Z,56.90
2017-12-19T09:49:55.169Z,56.90
2017-12-19T09:52:23.438Z,56.60
2017-12-19T09:54:50.954Z,56.50
2017-12-19T09:57:18.454Z,56.70
2017-12-19T09:59:45.982Z,56.80
2017-12-19T10:02:13.486Z,56.70
2017-12-19T10:04:41.777Z,57.10
2017-12-19T10:07:09.279Z,57.00
2017-12-19T10:09:36.809Z,56.90
2017-12-19T10:12:04.322Z,56.50
2017-12-19T10:14:31.850Z,56.70
2017-12-19T10:16:59.341Z,56.80
2017-12-19T10:19:26.862Z,56.80
2017-12-19T10:21:54.375Z,57.00
2017-12-19T10:24:22.714Z,57.00
2017-12-19T10:26:50.178Z,56.70
2017-12-19T10:29:17.706Z,56.60
2017-12-19T10:31:45.202Z,56.70
2017-12-19T10:34:12.735Z,56.80
2017-12-19T10:36:40.238Z,56.70
2017-12-19T10:39:08.530Z,56.60
2017-12-19T10:41:36.805Z,56.50
2017-12-19T10:44:04.326Z,56.50
2017-12-19T10:46:31.830Z,56.60
2017-12-19T10:48:59.379Z,56.80
2017-12-19T10:51:26.880Z,56.60
2017-12-19T10:53:54.380Z,56.40
2017-12-19T10:56:21.897Z,56.50
2017-12-19T10:58:49.390Z,56.60
2017-12-19T11:01:16.906Z,56.70
2017-12-19T11:03:44.410Z,56.60
2017-12-19T11:06:11.939Z,56.40
2017-12-19T11:08:39.451Z,56.30
2017-12-19T11:11:07.734Z,56.50
2017-12-19T11:13:36.004Z,56.80
2017-12-19T11:16:03.537Z,56.20
2017-12-19T11:18:31.038Z,55.90
2017-12-19T11:20:58.529Z,55.50
2017-12-19T11:23:26.053Z,55.30
2017-12-19T11:25:53.635Z,55.10
2017-12-19T11:28:22.986Z,55.10
2017-12-19T11:30:50.501Z,55.30
2017-12-19T11:33:18.025Z,55.40
2017-12-19T11:35:45.530Z,55.30
2017-12-19T11:38:13.047Z,55.20
2017-12-19T11:40:40.554Z,55.30
2017-12-19T11:43:08.126Z,55.30
2017-12-19T11:45:35.605Z,55.40
2017-12-19T11:48:03.911Z,55.30
2017-12-19T11:50:31.410Z,55.30
2017-12-19T11:52:58.934Z,55.30
2017-12-19T11:55:26.429Z,55.50
2017-12-19T11:57:53.939Z,55.40
2017-12-19T12:00:21.485Z,55.30
2017-12-19T12:02:49.759Z,55.60
2017-12-19T12:05:18.054Z,55.50
2017-12-19T12:07:45.564Z,55.40
2017-12-19T12:10:13.082Z,55.30
2017-12-19T12:12:40.596Z,55.20
2017-12-19T12:15:08.899Z,54.90
2017-12-19T12:17:36.411Z,54.80
2017-12-19T12:20:03.940Z,54.70
2017-12-19T12:22:31.442Z,54.50
2017-12-19T12:24:58.970Z,54.70
2017-12-19T12:27:26.471Z,54.80
2017-12-19T12:29:53.996Z,55.40
2017-12-19T12:32:21.506Z,54.70
2017-12-19T12:34:49.789Z,54.60
2017-12-19T12:37:18.059Z,54.70
2017-12-19T12:39:46.351Z,54.90
2017-12-19T12:42:13.861Z,54.80
2017-12-19T12:44:41.389Z,54.50
2017-12-19T12:47:08.890Z,54.40
2017-12-19T12:49:36.405Z,54.50
2017-12-19T12:52:03.923Z,55.40
2017-12-19T12:54:32.190Z,55.10
2017-12-19T12:56:59.710Z,55.10
2017-12-19T12:59:27.218Z,54.80
2017-12-19T13:01:55.505Z,54.80
2017-12-19T13:04:23.773Z,55.10
2017-12-19T13:06:52.091Z,55.20
2017-12-19T13:09:20.353Z,55.00
2017-12-19T13:11:48.670Z,55.10
2017-12-19T13:14:16.183Z,55.00
2017-12-19T13:16:44.437Z,55.00
2017-12-19T13:19:11.949Z,55.00
2017-12-19T13:24:13.364Z,54.20
2017-12-19T13:26:40.859Z,54.30
2017-12-19T13:29:08.382Z,53.80
2017-12-19T13:31:36.658Z,54.10
2017-12-19T13:34:04.959Z,53.60
2017-12-19T13:36:32.465Z,53.50
2017-12-19T13:39:00.004Z,53.50
2017-12-19T13:41:27.536Z,53.40
2017-12-19T13:43:55.810Z,53.80
2017-12-19T13:46:24.074Z,53.60
2017-12-19T13:48:52.390Z,53.80
2017-12-19T13:51:19.911Z,53.80
2017-12-19T13:53:48.203Z,54.60
2017-12-19T13:56:15.701Z,54.00
2017-12-19T13:58:43.223Z,54.10
2017-12-19T14:01:10.730Z,54.10
2017-12-19T14:03:38.461Z,54.10
2017-12-19T14:06:05.977Z,54.10
2017-12-19T14:08:34.274Z,53.60
2017-12-19T14:11:02.535Z,54.00
2017-12-19T14:13:30.043Z,54.00
2017-12-19T14:15:57.564Z,54.10
2017-12-19T14:18:25.833Z,54.20
2017-12-19T14:20:54.155Z,54.40
2017-12-19T14:23:21.694Z,54.30
2017-12-19T14:25:49.218Z,54.40
2017-12-19T14:28:16.722Z,54.30
2017-12-19T14:30:44.254Z,54.30
2017-12-19T14:33:12.518Z,54.30
2017-12-19T14:35:40.038Z,54.20
2017-12-19T14:38:07.545Z,54.30
2017-12-19T14:40:35.838Z,55.00
2017-12-19T14:43:03.346Z,54.30
2017-12-19T14:45:30.982Z,54.50
2017-12-19T14:47:59.242Z,54.50
2017-12-19T14:50:26.766Z,54.40
2017-12-19T14:52:54.280Z,54.50
2017-12-19T14:55:21.807Z,54.60
2017-12-19T14:57:49.315Z,54.70
2017-12-19T15:00:16.836Z,54.70
2017-12-19T15:02:44.329Z,54.60
2017-12-19T15:05:11.848Z,54.50
2017-12-19T15:07:39.361Z,54.50
2017-12-19T15:10:06.894Z,54.40
2017-12-19T15:12:34.399Z,54.20
2017-12-19T15:15:01.918Z,54.50
2017-12-19T15:17:29.423Z,55.30
2017-12-19T15:19:57.717Z,55.00
2017-12-19T15:22:25.993Z,55.00
2017-12-19T15:24:53.554Z,55.00
2017-12-19T15:27:21.822Z,55.10
2017-12-19T15:29:50.095Z,55.20
2017-12-19T15:32:18.401Z,55.10
2017-12-19T15:34:45.922Z,55.10
2017-12-19T15:37:13.484Z,55.20
2017-12-19T15:39:41.754Z,55.30
2017-12-19T15:42:09.289Z,55.20
2017-12-19T15:44:37.564Z,55.30
2017-12-19T15:47:05.083Z,55.30
2017-12-19T15:49:32.598Z,55.50
2017-12-19T15:52:00.123Z,55.60
2017-12-19T15:54:27.639Z,55.60
2017-12-19T15:56:55.946Z,55.60
2017-12-19T15:59:23.454Z,55.60
2017-12-19T16:01:50.950Z,55.60
2017-12-19T16:04:18.471Z,55.60
2017-12-19T16:06:45.985Z,55.70
2017-12-19T16:09:13.518Z,55.80
2017-12-19T16:11:41.790Z,55.70
2017-12-19T16:14:09.313Z,55.70
2017-12-19T16:16:36.814Z,55.70
2017-12-19T16:19:05.099Z,55.60
2017-12-19T16:21:33.374Z,55.70
2017-12-19T16:24:00.899Z,55.60
2017-12-19T16:26:28.412Z,56.30
2017-12-19T16:28:55.947Z,55.90
2017-12-19T16:31:23.451Z,55.90
2017-12-19T16:33:50.967Z,56.10
2017-12-19T16:36:19.259Z,56.30
2017-12-19T16:38:46.767Z,56.10
2017-12-19T16:41:14.301Z,56.20
2017-12-19T16:43:41.863Z,56.20
2017-12-19T16:46:09.391Z,56.20
2017-12-19T16:48:36.890Z,56.20
2017-12-19T16:51:04.405Z,56.10
2017-12-19T16:53:32.674Z,56.20
2017-12-19T16:56:00.959Z,56.20
2017-12-19T16:58:28.458Z,56.20
2017-12-19T17:00:55.978Z,56.20
2017-12-19T17:03:23.479Z,56.20
2017-12-19T17:05:51.042Z,56.30
2017-12-19T17:08:18.555Z,56.30
2017-12-19T17:10:46.839Z,56.40
2017-12-19T17:13:14.388Z,56.40
2017-12-19T17:15:42.676Z,56.50
2017-12-19T17:18:10.173Z,56.40
2017-12-19T17:20:37.696Z,56.40
2017-12-19T17:23:05.225Z,56.60
2017-12-19T17:25:32.758Z,56.50
2017-12-19T17:28:00.262Z,56.60
2017-12-19T17:30:27.786Z,56.60
2017-12-19T17:32:55.323Z,56.70
2017-12-19T17:35:22.825Z,56.70
2017-12-19T17:37:50.367Z,56.60
2017-12-19T17:40:19.662Z,56.70
2017-12-19T17:42:47.492Z,56.70
2017-12-19T17:45:15.038Z,56.70
2017-12-19T17:47:42.544Z,56.70
2017-12-19T17:50:10.058Z,56.70
2017-12-19T17:52:37.564Z,56.80
2017-12-19T17:55:05.117Z,56.90
2017-12-19T17:57:32.613Z,56.90
2017-12-19T18:00:00.910Z,56.90
2017-12-19T18:02:28.455Z,56.90
2017-12-19T18:04:56.034Z,56.90
2017-12-19T18:07:23.542Z,57.00
2017-12-19T18:09:51.057Z,57.00
2017-12-19T18:12:18.565Z,57.00
2017-12-19T18:14:46.132Z,57.00
2017-12-19T18:17:13.666Z,56.90
2017-12-19T18:19:41.194Z,57.00
2017-12-19T18:22:08.703Z,57.00
2017-12-19T18:24:36.320Z,57.00
2017-12-19T18:27:03.877Z,56.80
2017-12-19T18:29:31.382Z,56.80
2017-12-19T18:31:58.905Z,57.30
2017-12-19T18:34:26.414Z,56.90
2017-12-19T18:36:53.993Z,57.00
2017-12-19T18:39:22.263Z,57.10
2017-12-19T18:41:50.612Z,57.00
2017-12-19T18:44:18.156Z,57.00
2017-12-19T18:46:45.679Z,57.00
2017-12-19T18:49:13.227Z,57.00
2017-12-19T18:51:40.750Z,57.00
2017-12-19T18:54:08.254Z,57.00
2017-12-19T18:56:35.838Z,57.00
2017-12-19T18:59:03.337Z,57.00
2017-12-19T19:01:30.903Z,56.90
2017-12-19T19:03:58.472Z,56.90
2017-12-19T19:06:26.810Z,56.80
2017-12-19T19:08:54.314Z,56.70
2017-12-19T19:11:22.653Z,56.80
2017-12-19T19:13:50.163Z,56.70
2017-12-19T19:16:17.684Z,56.80
2017-12-19T19:18:45.214Z,56.60
2017-12-19T19:21:12.721Z,56.70
2017-12-19T19:23:40.283Z,56.70
2017-12-19T19:26:08.641Z,56.30
2017-12-19T19:28:36.223Z,56.30
2017-12-19T19:31:03.746Z,56.30
2017-12-19T19:33:31.305Z,56.40
2017-12-19T19:35:58.918Z,56.40
2017-12-19T19:38:27.258Z,56.20
2017-12-19T19:40:54.782Z,56.10
2017-12-19T19:43:22.325Z,56.20
2017-12-19T19:45:49.878Z,56.10
2017-12-19T19:48:17.441Z,56.10
2017-12-19T19:50:45.007Z,55.90
2017-12-19T19:53:12.601Z,55.80
2017-12-19T19:55:40.322Z,55.80
2017-12-19T19:58:07.949Z,55.80
2017-12-19T20:00:35.615Z,55.90
2017-12-19T20:03:03.198Z,55.70
2017-12-19T20:05:31.519Z,55.90
2017-12-19T20:07:59.146Z,55.80
2017-12-19T20:10:27.475Z,55.90
2017-12-19T20:12:55.075Z,55.80
2017-12-19T20:15:23.407Z,55.80
2017-12-19T20:17:50.997Z,55.70
2017-12-19T20:20:18.554Z,55.90
2017-12-19T20:22:46.108Z,56.00
2017-12-19T20:25:13.685Z,56.10
2017-12-19T20:27:41.242Z,56.10
2017-12-19T20:30:08.822Z,56.10
2017-12-19T20:32:37.138Z,56.10
2017-12-19T20:35:04.717Z,56.10
2017-12-19T20:37:32.215Z,56.00
2017-12-19T20:40:00.586Z,56.00
2017-12-19T20:42:28.905Z,56.00
2017-12-19T20:44:56.458Z,56.00
2017-12-19T20:47:24.030Z,56.20
2017-12-19T20:49:51.625Z,56.30
2017-12-19T20:52:19.198Z,56.50
2017-12-19T20:54:46.758Z,56.60
2017-12-19T20:57:14.348Z,57.50
2017-12-19T20:59:41.979Z,57.00
2017-12-19T21:02:09.552Z,57.20
2017-12-19T21:04:37.868Z,57.50
2017-12-19T21:07:05.433Z,57.50
2017-12-19T21:09:33.023Z,57.60
2017-12-19T21:12:01.381Z,57.80
2017-12-19T21:14:28.930Z,57.80
2017-12-19T21:16:56.476Z,57.90
2017-12-19T21:19:24.051Z,57.90
2017-12-19T21:21:51.610Z,57.90
2017-12-19T21:24:19.181Z,58.00
2017-12-19T21:26:46.854Z,58.00
2017-12-19T21:29:14.436Z,58.00
2017-12-19T21:31:41.990Z,58.10
2017-12-19T21:34:09.565Z,58.10
2017-12-19T21:36:37.882Z,58.20
2017-12-19T21:39:05.403Z,58.20
2017-12-19T21:41:32.965Z,58.20
2017-12-19T21:44:01.309Z,58.10
2017-12-19T21:46:28.858Z,58.00
2017-12-19T21:48:56.428Z,57.90
2017-12-19T21:51:24.026Z,57.80
2017-12-19T21:53:52.411Z,57.60
2017-12-19T21:56:20.721Z,57.70
2017-12-19T21:58:48.298Z,57.70
2017-12-19T22:01:16.316Z,57.60
2017-12-19T22:03:44.587Z,57.40
2017-12-19T22:06:12.158Z,57.30
2017-12-19T22:08:40.474Z,57.50
2017-12-19T22:11:07.991Z,57.40
2017-12-19T22:13:35.561Z,57.40
2017-12-19T22:16:03.128Z,57.40
2017-12-19T22:18:30.682Z,57.20
2017-12-19T22:20:58.246Z,57.30
2017-12-19T22:23:25.742Z,57.20
2017-12-19T22:25:53.311Z,57.30
2017-12-19T22:28:20.858Z,57.40
2017-12-19T22:30:48.429Z,57.40
2017-12-19T22:33:16.749Z,57.50
2017-12-19T22:35:45.097Z,57.60
2017-12-19T22:38:12.652Z,57.50
2017-12-19T22:40:40.213Z,57.60
2017-12-19T22:43:07.760Z,57.60
2017-12-19T22:45:35.420Z,57.70
2017-12-19T22:48:02.980Z,57.70
2017-12-19T22:50:30.537Z,57.70
2017-12-19T22:52:58.107Z,57.60
2017-12-19T22:55:25.655Z,58.20
2017-12-19T22:57:53.231Z,57.70
2017-12-19T23:00:20.786Z,57.60
2017-12-19T23:02:48.361Z,57.70
2017-12-19T23:05:15.909Z,57.70
2017-12-19T23:07:43.498Z,57.70
2017-12-19T23:10:10.998Z,57.70
2017-12-19T23:12:38.526Z,57.50
2017-12-19T23:15:06.844Z,57.60
2017-12-19T23:17:34.374Z,57.60
2017-12-19T23:20:01.931Z,57.70
2017-12-19T23:22:30.217Z,57.80
2017-12-19T23:24:57.799Z,57.70
2017-12-19T23:27:26.077Z,57.80
2017-12-19T23:29:53.594Z,57.70
2017-12-19T23:32:21.941Z,57.80
2017-12-19T23:34:49.507Z,57.80
2017-12-19T23:37:17.081Z,57.60
2017-12-19T23:39:44.629Z,57.60
2017-12-19T23:42:12.145Z,57.70
2017-12-19T23:44:39.651Z,57.70
2017-12-19T23:47:07.166Z,57.70
2017-12-19T23:49:34.662Z,57.80
2017-12-19T23:52:02.188Z,57.80
2017-12-19T23:54:29.693Z,57.80
2017-12-19T23:56:57.229Z,57.80
2017-12-19T23:59:25.580Z,57.80
